createdAt,value
2022-11-07T00:02:27.116Z,10.12
2022-11-07T00:04:55.087Z,10.17
2022-11-07T00:07:22.886Z,10.17
2022-11-07T00:09:50.852Z,10.20
2022-11-07T00:12:18.853Z,10.18
2022-11-07T00:14:46.891Z,10.15
2022-11-07T00:17:14.690Z,10.12
2022-11-07T00:19:42.517Z,10.09
2022-11-07T00:22:10.345Z,10.09
2022-11-07T00:24:38.363Z,10.05
2022-11-07T00:27:06.280Z,10.03
2022-11-07T00:29:34.291Z,10.02
2022-11-07T00:32:02.197Z,10.02
2022-11-07T00:34:29.987Z,10.02
2022-11-07T00:36:57.942Z,10.10
2022-11-07T00:39:25.706Z,10.15
2022-11-07T00:41:53.479Z,10.18
2022-11-07T00:44:21.468Z,10.20
2022-11-07T00:46:49.398Z,10.21
2022-11-07T00:49:17.412Z,10.22
2022-11-07T00:51:45.219Z,10.23
2022-11-07T00:54:13.055Z,10.19
2022-11-07T00:56:40.964Z,10.17
2022-11-07T00:59:09.045Z,10.17
2022-11-07T01:01:37.149Z,10.17
2022-11-07T01:04:23.930Z,10.17
2022-11-07T01:06:52.412Z,10.20
2022-11-07T01:09:22.144Z,10.21
2022-11-07T01:11:50.148Z,10.20
2022-11-07T01:14:20.559Z,10.17
2022-11-07T01:16:48.800Z,10.12
2022-11-07T01:19:17.511Z,10.04
2022-11-07T01:21:45.951Z,9.96
2022-11-07T01:24:14.472Z,9.91
2022-11-07T01:26:43.999Z,9.92
2022-11-07T01:29:11.931Z,9.95
2022-11-07T01:31:40.928Z,9.95
2022-11-07T01:34:08.769Z,9.95
2022-11-07T01:36:37.111Z,9.93
2022-11-07T01:39:06.296Z,9.88
2022-11-07T01:41:37.569Z,9.90
2022-11-07T01:44:08.450Z,9.92
2022-11-07T01:46:40.195Z,9.92
2022-11-07T01:49:11.096Z,9.94
2022-11-07T01:51:48.365Z,9.98
2022-11-07T01:54:20.330Z,10.02
2022-11-07T01:56:49.299Z,10.04
2022-11-07T01:59:21.385Z,10.05
2022-11-07T02:01:50.424Z,10.07
2022-11-07T02:04:21.034Z,10.10
2022-11-07T02:06:55.403Z,10.11
2022-11-07T02:09:23.317Z,10.08
2022-11-07T02:11:51.874Z,10.06
2022-11-07T02:14:19.859Z,10.02
2022-11-07T02:16:47.807Z,9.97
2022-11-07T02:19:32.954Z,9.93
2022-11-07T02:22:13.492Z,9.86
2022-11-07T02:24:42.245Z,9.81
2022-11-07T02:27:14.713Z,9.76
2022-11-07T02:29:48.105Z,9.76
2022-11-07T02:32:15.973Z,9.78
2022-11-07T02:34:43.740Z,9.78
2022-11-07T02:37:26.244Z,9.73
2022-11-07T02:39:54.273Z,9.69
2022-11-07T02:42:22.567Z,9.71
2022-11-07T02:44:54.105Z,9.75
2022-11-07T02:47:21.889Z,9.84
2022-11-07T02:49:49.827Z,9.90
2022-11-07T02:52:17.658Z,9.96
2022-11-07T02:54:45.773Z,9.97
2022-11-07T02:57:13.504Z,9.95
2022-11-07T02:59:41.439Z,9.93
2022-11-07T03:02:10.518Z,9.91
2022-11-07T03:04:38.390Z,9.96
2022-11-07T03:07:06.370Z,10.00
2022-11-07T03:09:34.206Z,10.09
2022-11-07T03:12:01.981Z,10.16
2022-11-07T03:14:29.891Z,10.22
2022-11-07T03:16:58.172Z,10.28
2022-11-07T03:19:26.474Z,10.34
2022-11-07T03:21:54.286Z,10.37
2022-11-07T03:24:22.150Z,10.39
2022-11-07T03:26:49.895Z,10.41
2022-11-07T03:29:17.703Z,10.43
2022-11-07T03:31:45.617Z,10.44
2022-11-07T03:34:13.585Z,10.45
2022-11-07T03:36:41.428Z,10.45
2022-11-07T03:39:09.277Z,10.43
2022-11-07T03:41:37.260Z,10.38
2022-11-07T03:44:05.274Z,10.36
2022-11-07T03:46:33.098Z,10.36
2022-11-07T03:49:00.966Z,10.32
2022-11-07T03:51:28.911Z,10.28
2022-11-07T03:53:56.799Z,10.25
2022-11-07T03:56:24.698Z,10.20
2022-11-07T03:58:54.682Z,10.18
2022-11-07T04:01:22.779Z,10.16
2022-11-07T04:03:53.923Z,10.12
2022-11-07T04:06:23.994Z,10.07
2022-11-07T04:08:51.857Z,10.01
2022-11-07T04:11:38.367Z,9.97
2022-11-07T04:14:24.817Z,9.93
2022-11-07T04:17:11.485Z,9.84
2022-11-07T04:19:42.920Z,9.82
2022-11-07T04:22:18.621Z,9.80
2022-11-07T04:24:46.681Z,9.81
2022-11-07T04:27:34.702Z,9.89
2022-11-07T04:30:33.032Z,9.97
2022-11-07T04:33:02.354Z,10.00
2022-11-07T04:35:32.479Z,10.03
2022-11-07T04:38:00.739Z,10.03
2022-11-07T04:40:29.278Z,10.06
2022-11-07T04:42:57.101Z,10.11
2022-11-07T04:45:27.190Z,10.18
2022-11-07T04:47:55.171Z,10.26
2022-11-07T04:50:23.052Z,10.36
2022-11-07T04:52:50.829Z,10.43
2022-11-07T04:55:25.129Z,10.47
2022-11-07T04:57:53.293Z,10.50
2022-11-07T05:00:21.807Z,10.53
2022-11-07T05:02:50.218Z,10.58
2022-11-07T05:05:18.633Z,10.64
2022-11-07T05:07:46.999Z,10.69
2022-11-07T05:10:22.852Z,10.75
2022-11-07T05:12:51.107Z,10.81
2022-11-07T05:15:19.169Z,10.87
2022-11-07T05:17:47.374Z,10.89
2022-11-07T05:20:35.294Z,10.89
2022-11-07T05:23:16.071Z,10.86
2022-11-07T05:25:50.369Z,10.80
2022-11-07T05:28:30.042Z,10.68
2022-11-07T05:31:04.114Z,10.63
2022-11-07T05:33:32.224Z,10.61
2022-11-07T05:36:11.822Z,10.63
2022-11-07T05:38:44.885Z,10.66
2022-11-07T05:41:14.116Z,10.60
2022-11-07T05:43:42.229Z,10.52
2022-11-07T05:46:10.649Z,10.42
2022-11-07T05:48:38.948Z,10.32
2022-11-07T05:51:08.594Z,10.28
2022-11-07T05:53:36.466Z,10.29
2022-11-07T05:56:04.590Z,10.28
2022-11-07T05:58:32.681Z,10.23
2022-11-07T06:01:02.051Z,10.18
2022-11-07T06:03:30.883Z,10.15
2022-11-07T06:05:58.791Z,10.11
2022-11-07T06:08:26.774Z,10.08
2022-11-07T06:10:54.993Z,10.06
2022-11-07T06:13:23.946Z,10.07
2022-11-07T06:15:53.717Z,10.11
2022-11-07T06:18:21.633Z,10.15
2022-11-07T06:20:49.473Z,10.18
2022-11-07T06:23:17.863Z,10.17
2022-11-07T06:25:46.140Z,10.14
2022-11-07T06:28:15.356Z,10.11
2022-11-07T06:30:43.609Z,10.08
2022-11-07T06:33:13.323Z,10.05
2022-11-07T06:35:42.224Z,10.05
2022-11-07T06:38:14.516Z,10.08
2022-11-07T06:40:42.973Z,10.12
2022-11-07T06:43:17.647Z,10.15
2022-11-07T06:45:46.724Z,10.19
2022-11-07T06:48:14.982Z,10.20
2022-11-07T06:50:43.890Z,10.20
2022-11-07T06:53:13.596Z,10.22
2022-11-07T06:55:41.825Z,10.24
2022-11-07T06:58:09.761Z,10.25
2022-11-07T07:00:37.759Z,10.27
2022-11-07T07:03:06.155Z,10.27
2022-11-07T07:05:34.806Z,10.27
2022-11-07T07:08:04.462Z,10.30
2022-11-07T07:10:37.941Z,10.33
2022-11-07T07:13:06.316Z,10.37
2022-11-07T07:15:47.780Z,10.45
2022-11-07T07:18:19.512Z,10.52
2022-11-07T07:20:49.602Z,10.59
2022-11-07T07:23:20.061Z,10.68
2022-11-07T07:25:48.377Z,10.76
2022-11-07T07:28:18.500Z,10.84
2022-11-07T07:30:51.614Z,10.85
2022-11-07T07:33:20.893Z,10.90
2022-11-07T07:35:48.832Z,10.89
2022-11-07T07:38:16.802Z,10.89
2022-11-07T07:40:44.798Z,10.90
2022-11-07T07:43:12.860Z,10.89
2022-11-07T07:45:41.445Z,10.87
2022-11-07T07:48:09.533Z,10.91
2022-11-07T07:50:37.404Z,10.92
2022-11-07T07:53:09.037Z,10.95
2022-11-07T07:55:37.501Z,10.95
2022-11-07T07:58:05.429Z,10.94
2022-11-07T08:00:34.005Z,10.93
2022-11-07T08:03:03.846Z,10.91
2022-11-07T08:05:31.721Z,10.90
2022-11-07T08:07:59.727Z,10.90
2022-11-07T08:10:41.374Z,10.89
2022-11-07T08:13:09.989Z,11.01
2022-11-07T08:15:38.160Z,11.02
2022-11-07T08:18:06.503Z,11.06
2022-11-07T08:20:34.338Z,11.08
2022-11-07T08:23:04.493Z,11.15
2022-11-07T08:25:32.515Z,11.24
2022-11-07T08:28:00.710Z,11.34
2022-11-07T08:30:28.811Z,11.42
2022-11-07T08:33:00.800Z,11.51
2022-11-07T08:35:31.801Z,11.57
2022-11-07T08:37:59.747Z,11.61
2022-11-07T08:40:27.695Z,11.72
2022-11-07T08:43:00.468Z,11.79
2022-11-07T08:45:28.381Z,11.76
2022-11-07T08:47:57.769Z,11.71
2022-11-07T08:50:26.331Z,11.67
2022-11-07T08:52:58.274Z,11.63
2022-11-07T08:55:29.750Z,11.62
2022-11-07T08:58:08.129Z,11.63
2022-11-07T09:00:36.521Z,11.64
2022-11-07T09:05:57.004Z,11.65
2022-11-07T09:08:24.845Z,11.70
2022-11-07T09:10:52.781Z,11.78
2022-11-07T09:13:23.502Z,11.82
2022-11-07T09:15:52.090Z,11.88
2022-11-07T09:18:20.071Z,11.95
2022-11-07T09:20:48.076Z,11.96
2022-11-07T09:23:16.290Z,11.96
2022-11-07T09:25:45.505Z,11.90
2022-11-07T09:28:14.657Z,11.88
2022-11-07T09:30:44.023Z,11.95
2022-11-07T09:33:11.862Z,12.08
2022-11-07T09:35:39.841Z,12.20
2022-11-07T09:38:07.839Z,12.22
2022-11-07T09:40:40.327Z,12.32
2022-11-07T09:43:11.326Z,12.36
2022-11-07T09:45:53.600Z,12.40
2022-11-07T09:48:25.696Z,12.48
2022-11-07T09:50:53.682Z,12.52
2022-11-07T09:53:26.003Z,12.54
2022-11-07T09:55:57.395Z,12.61
2022-11-07T09:58:25.076Z,12.72
2022-11-07T10:00:57.105Z,12.87
2022-11-07T10:03:25.069Z,13.00
2022-11-07T10:06:00.205Z,13.15
2022-11-07T10:09:02.094Z,13.40
2022-11-07T10:11:40.529Z,13.90
2022-11-07T10:14:37.701Z,14.40
2022-11-07T10:17:31.512Z,14.91
2022-11-07T10:20:24.773Z,15.31
2022-11-07T10:23:30.982Z,15.40
2022-11-07T10:26:10.551Z,15.68
2022-11-07T10:28:45.693Z,16.08
2022-11-07T10:31:14.843Z,16.48
2022-11-07T10:33:56.787Z,16.76
2022-11-07T10:36:26.901Z,16.88
2022-11-07T10:38:55.333Z,17.06
2022-11-07T10:41:28.995Z,17.33
2022-11-07T10:44:01.989Z,17.87
2022-11-07T10:46:43.759Z,18.61
2022-11-07T10:49:30.532Z,19.56
2022-11-07T10:52:18.814Z,20.50
2022-11-07T10:54:47.164Z,21.12
2022-11-07T10:57:20.450Z,21.37
2022-11-07T10:59:58.508Z,21.82
2022-11-07T11:02:28.625Z,22.58
2022-11-07T11:05:00.754Z,23.34
2022-11-07T11:07:38.014Z,23.92
2022-11-07T11:10:21.540Z,24.13
2022-11-07T11:12:50.050Z,24.17
2022-11-07T11:15:19.736Z,24.52
2022-11-07T11:17:56.674Z,25.06
2022-11-07T11:20:35.914Z,25.29
2022-11-07T11:23:05.844Z,25.02
2022-11-07T11:25:42.777Z,24.90
2022-11-07T11:28:15.504Z,24.92
2022-11-07T11:30:47.169Z,24.86
2022-11-07T11:33:24.100Z,24.57
2022-11-07T11:35:58.031Z,24.28
2022-11-07T11:38:39.292Z,24.41
2022-11-07T11:41:10.717Z,24.15
2022-11-07T11:43:46.680Z,24.04
2022-11-07T11:46:20.847Z,24.34
2022-11-07T11:49:05.846Z,24.89
2022-11-07T11:51:45.479Z,25.52
2022-11-07T11:54:16.026Z,25.70
2022-11-07T11:56:43.974Z,25.65
2022-11-07T11:59:24.578Z,25.64
2022-11-07T12:02:16.391Z,25.56
2022-11-07T12:05:17.910Z,25.81
2022-11-07T12:08:17.614Z,26.44
2022-11-07T12:11:11.935Z,26.76
2022-11-07T12:14:17.603Z,26.88
2022-11-07T12:16:49.508Z,26.84
2022-11-07T12:19:17.297Z,26.61
2022-11-07T12:21:57.166Z,26.14
2022-11-07T12:24:44.038Z,25.71
2022-11-07T12:27:36.600Z,25.61
2022-11-07T12:30:22.635Z,25.52
2022-11-07T12:33:14.674Z,25.71
2022-11-07T12:35:55.243Z,26.33
2022-11-07T12:39:00.225Z,27.03
2022-11-07T12:41:40.304Z,27.49
2022-11-07T12:44:56.479Z,27.62
2022-11-07T12:47:45.076Z,27.55
2022-11-07T12:50:40.017Z,27.30
2022-11-07T12:53:19.357Z,26.91
2022-11-07T12:55:56.861Z,26.95
2022-11-07T12:58:29.479Z,26.91
2022-11-07T13:00:59.105Z,26.70
2022-11-07T13:03:36.158Z,26.41
2022-11-07T13:06:15.563Z,26.09
2022-11-07T13:08:52.184Z,25.60
2022-11-07T13:11:27.891Z,25.58
2022-11-07T13:14:16.331Z,25.88
2022-11-07T13:17:11.112Z,25.91
2022-11-07T13:19:44.570Z,25.59
2022-11-07T13:22:15.574Z,25.46
2022-11-07T13:24:57.595Z,25.00
2022-11-07T13:27:37.462Z,23.91
2022-11-07T13:30:15.188Z,22.93
2022-11-07T13:32:44.471Z,21.97
2022-11-07T13:35:37.121Z,21.04
2022-11-07T13:38:15.444Z,20.20
2022-11-07T13:41:04.774Z,19.58
2022-11-07T13:43:45.372Z,18.88
2022-11-07T13:47:01.281Z,18.17
2022-11-07T13:49:44.323Z,17.53
2022-11-07T13:52:23.575Z,17.18
2022-11-07T13:55:01.502Z,16.91
2022-11-07T13:57:40.613Z,16.68
2022-11-07T14:00:16.108Z,16.87
2022-11-07T14:02:51.474Z,17.64
2022-11-07T14:05:27.094Z,18.36
2022-11-07T14:08:06.650Z,18.93
2022-11-07T14:10:43.142Z,19.24
2022-11-07T14:13:12.821Z,19.24
2022-11-07T14:15:48.521Z,19.08
2022-11-07T14:18:17.477Z,18.75
2022-11-07T14:20:50.095Z,18.36
2022-11-07T14:23:24.680Z,17.96
2022-11-07T14:26:35.496Z,17.56
2022-11-07T14:29:04.803Z,17.21
2022-11-07T14:31:37.191Z,16.94
2022-11-07T14:34:17.576Z,16.54
2022-11-07T14:36:56.709Z,16.16
2022-11-07T14:39:26.130Z,15.79
2022-11-07T14:41:58.998Z,15.51
2022-11-07T14:44:53.795Z,15.36
2022-11-07T14:47:29.226Z,15.16
2022-11-07T14:49:57.915Z,14.93
2022-11-07T14:52:25.988Z,14.71
2022-11-07T14:55:04.232Z,14.51
2022-11-07T14:57:38.302Z,14.31
2022-11-07T15:00:08.879Z,14.16
2022-11-07T15:02:37.300Z,14.10
2022-11-07T15:05:10.935Z,14.02
2022-11-07T15:07:46.154Z,13.92
2022-11-07T15:10:18.252Z,13.78
2022-11-07T15:12:51.764Z,13.62
2022-11-07T15:15:23.491Z,13.50
2022-11-07T15:17:53.955Z,13.40
2022-11-07T15:20:31.020Z,13.31
2022-11-07T15:22:59.961Z,13.20
2022-11-07T15:25:35.645Z,13.12
2022-11-07T15:28:22.569Z,13.06
2022-11-07T15:30:51.916Z,12.97
2022-11-07T15:33:20.020Z,12.91
2022-11-07T15:35:50.517Z,12.85
2022-11-07T15:38:25.149Z,12.79
2022-11-07T15:40:53.864Z,12.74
2022-11-07T15:43:21.748Z,12.67
2022-11-07T15:45:52.397Z,12.61
2022-11-07T15:48:23.616Z,12.56
2022-11-07T15:50:51.692Z,12.53
2022-11-07T15:53:24.952Z,12.53
2022-11-07T15:55:54.027Z,12.47
2022-11-07T15:58:24.074Z,12.41
2022-11-07T16:00:53.632Z,12.36
2022-11-07T16:03:23.541Z,12.30
2022-11-07T16:05:52.611Z,12.25
2022-11-07T16:08:22.633Z,12.21
2022-11-07T16:10:51.736Z,12.15
2022-11-07T16:13:19.797Z,12.06
2022-11-07T16:15:49.870Z,11.97
2022-11-07T16:18:21.185Z,11.90
2022-11-07T16:20:49.859Z,11.82
2022-11-07T16:23:18.391Z,11.76
2022-11-07T16:25:50.257Z,11.71
2022-11-07T16:28:31.683Z,11.66
2022-11-07T16:31:02.596Z,11.60
2022-11-07T16:33:32.667Z,11.59
2022-11-07T16:36:12.106Z,11.56
2022-11-07T16:38:43.924Z,11.47
2022-11-07T16:41:13.987Z,11.35
2022-11-07T16:43:42.003Z,11.28
2022-11-07T16:46:16.249Z,11.24
2022-11-07T16:48:45.800Z,11.21
2022-11-07T16:51:15.526Z,11.18
2022-11-07T16:53:44.609Z,11.14
2022-11-07T16:56:21.367Z,11.08
2022-11-07T16:58:49.337Z,11.02
2022-11-07T17:01:17.382Z,10.97
2022-11-07T17:03:45.311Z,10.95
2022-11-07T17:06:34.452Z,10.93
2022-11-07T17:09:12.159Z,10.89
2022-11-07T17:11:41.340Z,10.84
2022-11-07T17:14:09.456Z,10.83
2022-11-07T17:16:37.617Z,10.77
2022-11-07T17:19:05.984Z,10.71
2022-11-07T17:21:38.078Z,10.66
2022-11-07T17:24:07.485Z,10.63
2022-11-07T17:26:37.720Z,10.61
2022-11-07T17:29:06.713Z,10.57
2022-11-07T17:31:34.881Z,10.52
2022-11-07T17:34:03.044Z,10.46
2022-11-07T17:36:37.069Z,10.39
2022-11-07T17:39:11.672Z,10.34
2022-11-07T17:41:40.553Z,10.29
2022-11-07T17:44:09.433Z,10.26
2022-11-07T17:46:41.601Z,10.21
2022-11-07T17:49:12.671Z,10.15
2022-11-07T17:51:42.130Z,10.18
2022-11-07T17:54:11.615Z,10.19
2022-11-07T17:56:40.332Z,10.17
2022-11-07T17:59:27.877Z,10.13
2022-11-07T18:01:58.181Z,10.13
2022-11-07T18:04:26.371Z,10.10
2022-11-07T18:06:54.503Z,10.08
2022-11-07T18:09:22.580Z,10.12
2022-11-07T18:11:50.866Z,10.11
2022-11-07T18:14:18.848Z,10.08
2022-11-07T18:16:48.947Z,10.05
2022-11-07T18:19:19.914Z,10.03
2022-11-07T18:21:49.298Z,10.01
2022-11-07T18:24:17.781Z,10.00
2022-11-07T18:26:45.948Z,9.96
2022-11-07T18:29:14.136Z,9.95
2022-11-07T18:31:42.498Z,9.93
2022-11-07T18:34:12.233Z,9.93
2022-11-07T18:36:41.758Z,9.93
2022-11-07T18:39:18.830Z,9.85
2022-11-07T18:41:47.221Z,10.00
2022-11-07T18:44:15.525Z,10.04
2022-11-07T18:46:43.784Z,10.05
2022-11-07T18:49:14.255Z,10.04
2022-11-07T18:51:45.144Z,10.03
2022-11-07T18:54:13.954Z,10.01
2022-11-07T18:56:43.188Z,9.99
2022-11-07T18:59:11.804Z,9.99
2022-11-07T19:01:40.193Z,10.02
2022-11-07T19:04:11.608Z,10.00
2022-11-07T19:06:56.989Z,10.05
2022-11-07T19:09:28.234Z,10.05
2022-11-07T19:11:58.197Z,10.02
2022-11-07T19:14:26.993Z,10.01
2022-11-07T19:16:56.941Z,10.00
2022-11-07T19:19:25.073Z,9.99
2022-11-07T19:21:53.242Z,9.98
2022-11-07T19:24:21.243Z,9.98
2022-11-07T19:26:49.352Z,9.98
2022-11-07T19:29:18.672Z,9.99
2022-11-07T19:31:47.944Z,9.99
2022-11-07T19:34:18.163Z,9.95
2022-11-07T19:36:47.250Z,9.92
2022-11-07T19:39:15.285Z,9.85
2022-11-07T19:41:43.470Z,9.85
2022-11-07T19:44:12.019Z,9.89
2022-11-07T19:46:40.170Z,9.89
2022-11-07T19:49:08.569Z,9.89
2022-11-07T19:51:36.944Z,9.88
2022-11-07T19:54:07.059Z,9.82
2022-11-07T19:56:35.182Z,9.82
2022-11-07T19:59:03.374Z,9.79
2022-11-07T20:01:33.627Z,9.79
2022-11-07T20:04:02.945Z,9.79
2022-11-07T20:06:36.924Z,9.82
2022-11-07T20:09:06.740Z,9.83
2022-11-07T20:11:35.056Z,9.87
2022-11-07T20:14:04.124Z,9.90
2022-11-07T20:16:33.630Z,9.93
2022-11-07T20:19:02.193Z,9.96
2022-11-07T20:21:31.264Z,10.00
2022-11-07T20:24:00.023Z,10.04
2022-11-07T20:26:30.920Z,10.00
2022-11-07T20:28:59.629Z,10.02
2022-11-07T20:31:33.764Z,10.04
2022-11-07T20:34:07.277Z,10.08
2022-11-07T20:36:35.439Z,10.12
2022-11-07T20:39:04.837Z,10.15
2022-11-07T20:41:33.832Z,10.17
2022-11-07T20:44:04.403Z,10.18
2022-11-07T20:46:33.158Z,10.18
2022-11-07T20:49:02.997Z,10.14
2022-11-07T20:51:31.139Z,10.09
2022-11-07T20:53:59.595Z,10.06
2022-11-07T20:56:29.068Z,10.03
2022-11-07T20:59:00.335Z,9.96
2022-11-07T21:01:36.446Z,9.91
2022-11-07T21:04:13.071Z,9.89
2022-11-07T21:06:41.445Z,9.87
2022-11-07T21:09:10.698Z,9.83
2022-11-07T21:11:39.825Z,9.80
2022-11-07T21:14:08.179Z,9.79
2022-11-07T21:16:36.299Z,9.80
2022-11-07T21:19:05.412Z,9.77
2022-11-07T21:21:33.852Z,9.77
2022-11-07T21:24:02.341Z,9.75
2022-11-07T21:26:33.557Z,9.74
2022-11-07T21:29:05.926Z,9.73
2022-11-07T21:31:35.916Z,9.73
2022-11-07T21:34:04.675Z,9.73
2022-11-07T21:36:33.015Z,9.72
2022-11-07T21:39:01.732Z,9.72
2022-11-07T21:41:30.613Z,9.71
2022-11-07T21:43:58.533Z,9.68
2022-11-07T21:46:31.571Z,9.65
2022-11-07T21:49:00.680Z,9.64
2022-11-07T21:51:29.891Z,9.61
2022-11-07T21:53:59.365Z,9.55
2022-11-07T21:56:29.011Z,9.55
2022-11-07T21:58:59.614Z,9.54
2022-11-07T22:01:28.091Z,9.55
2022-11-07T22:04:06.690Z,9.57
2022-11-07T22:06:39.150Z,9.58
2022-11-07T22:09:08.170Z,9.57
2022-11-07T22:11:35.986Z,9.55
2022-11-07T22:14:04.487Z,9.54
2022-11-07T22:16:32.349Z,9.53
2022-11-07T22:19:00.580Z,9.51
2022-11-07T22:21:28.476Z,9.51
2022-11-07T22:23:56.419Z,9.50
2022-11-07T22:26:26.267Z,9.52
2022-11-07T22:28:54.938Z,9.55
2022-11-07T22:31:30.137Z,9.56
2022-11-07T22:33:59.296Z,9.61
2022-11-07T22:36:27.695Z,9.62
2022-11-07T22:38:57.674Z,9.62
2022-11-07T22:41:27.189Z,9.63
2022-11-07T22:43:55.941Z,9.64
2022-11-07T22:46:26.568Z,9.65
2022-11-07T22:48:55.643Z,9.67
2022-11-07T22:51:29.304Z,9.67
2022-11-07T22:53:59.596Z,9.66
2022-11-07T22:56:28.641Z,9.66
2022-11-07T22:58:56.746Z,9.66
2022-11-07T23:01:28.808Z,9.66
2022-11-07T23:03:57.382Z,9.64
2022-11-07T23:06:27.192Z,9.61
2022-11-07T23:08:58.260Z,9.61
2022-11-07T23:14:19.252Z,9.61
2022-11-07T23:16:52.488Z,9.60
2022-11-07T23:19:23.699Z,9.57
2022-11-07T23:21:56.502Z,9.55
2022-11-07T23:24:25.519Z,9.54
2022-11-07T23:26:53.483Z,9.54
2022-11-07T23:29:23.948Z,9.55
2022-11-07T23:31:52.736Z,9.54
2022-11-07T23:34:20.887Z,9.57
2022-11-07T23:36:52.561Z,9.57
2022-11-07T23:39:21.645Z,9.57
2022-11-07T23:41:49.588Z,9.58
2022-11-07T23:44:17.924Z,9.58
2022-11-07T23:47:04.649Z,9.59
2022-11-07T23:49:35.494Z,9.55
2022-11-07T23:52:04.357Z,9.54
2022-11-07T23:54:52.036Z,9.53
2022-11-07T23:57:20.448Z,9.50
